sensor_id;sensor_type;location;lat;lon;timestamp;pressure;altitude;pressure_sealevel;temperature;humidity
44297;BME280;51842;47.450;8.654;2023-07-31T00:00:32;95695.97;;;12.13;100.00
44297;BME280;51842;47.450;8.654;2023-07-31T00:02:58;95694.88;;;12.09;100.00
44297;BME280;51842;47.450;8.654;2023-07-31T00:05:24;95692.75;;;12.11;100.00
44297;BME280;51842;47.450;8.654;2023-07-31T00:07:49;95692.75;;;12.11;100.00
44297;BME280;51842;47.450;8.654;2023-07-31T00:10:15;95682.06;;;12.11;100.00
44297;BME280;51842;47.450;8.654;2023-07-31T00:12:44;95689.28;;;12.10;100.00
44297;BME280;51842;47.450;8.654;2023-07-31T00:15:10;95683.69;;;12.07;100.00
44297;BME280;51842;47.450;8.654;2023-07-31T00:17:37;95694.88;;;12.09;100.00
44297;BME280;51842;47.450;8.654;2023-07-31T00:20:03;95690.88;;;12.16;100.00
44297;BME280;51842;47.450;8.654;2023-07-31T00:22:29;95690.84;;;12.21;100.00
44297;BME280;51842;47.450;8.654;2023-07-31T00:24:56;95689.50;;;12.24;100.00
44297;BME280;51842;47.450;8.654;2023-07-31T00:27:22;95692.47;;;12.22;100.00
44297;BME280;51842;47.450;8.654;2023-07-31T00:29:48;95704.72;;;12.23;100.00
44297;BME280;51842;47.450;8.654;2023-07-31T00:32:14;95706.88;;;12.26;100.00
44297;BME280;51842;47.450;8.654;2023-07-31T00:34:40;95700.44;;;12.27;100.00
44297;BME280;51842;47.450;8.654;2023-07-31T00:37:06;95694.56;;;12.31;100.00
44297;BME280;51842;47.450;8.654;2023-07-31T00:39:34;95696.19;;;12.32;100.00
44297;BME280;51842;47.450;8.654;2023-07-31T00:42:00;95688.94;;;12.32;100.00
44297;BME280;51842;47.450;8.654;2023-07-31T00:44:26;95695.34;;;12.31;100.00
44297;BME280;51842;47.450;8.654;2023-07-31T00:46:52;95687.63;;;12.30;100.00
44297;BME280;51842;47.450;8.654;2023-07-31T00:49:20;95689.75;;;12.33;100.00
44297;BME280;51842;47.450;8.654;2023-07-31T00:51:46;95684.16;;;12.29;100.00
44297;BME280;51842;47.450;8.654;2023-07-31T00:54:12;95676.94;;;12.30;100.00
44297;BME280;51842;47.450;8.654;2023-07-31T00:56:38;95678.81;;;12.29;100.00
44297;BME280;51842;47.450;8.654;2023-07-31T00:59:04;95683.88;;;12.36;100.00
44297;BME280;51842;47.450;8.654;2023-07-31T01:01:30;95684.13;;;12.34;100.00
44297;BME280;51842;47.450;8.654;2023-07-31T01:03:56;95684.66;;;12.31;100.00
44297;BME280;51842;47.450;8.654;2023-07-31T01:06:48;95683.91;;;12.25;100.00
44297;BME280;51842;47.450;8.654;2023-07-31T01:09:42;95690.03;;;12.21;100.00
44297;BME280;51842;47.450;8.654;2023-07-31T01:12:15;95686.06;;;12.13;100.00
44297;BME280;51842;47.450;8.654;2023-07-31T01:15:11;95682.31;;;12.09;100.00
44297;BME280;51842;47.450;8.654;2023-07-31T01:17:41;95674.34;;;12.04;100.00
44297;BME280;51842;47.450;8.654;2023-07-31T01:20:15;95674.34;;;11.99;100.00
44297;BME280;51842;47.450;8.654;2023-07-31T01:29:04;95669.00;;;11.84;100.00
44297;BME280;51842;47.450;8.654;2023-07-31T01:31:32;95667.41;;;11.77;100.00
44297;BME280;51842;47.450;8.654;2023-07-31T01:34:01;95662.63;;;11.74;100.00
44297;BME280;51842;47.450;8.654;2023-07-31T01:36:30;95665.03;;;11.71;100.00
44297;BME280;51842;47.450;8.654;2023-07-31T01:39:02;95663.97;;;11.67;100.00
44297;BME280;51842;47.450;8.654;2023-07-31T01:41:29;95659.19;;;11.64;100.00
44297;BME280;51842;47.450;8.654;2023-07-31T01:43:55;95657.84;;;11.61;100.00
44297;BME280;51842;47.450;8.654;2023-07-31T01:46:21;95659.19;;;11.58;100.00
44297;BME280;51842;47.450;8.654;2023-07-31T01:48:46;95652.25;;;11.57;100.00
44297;BME280;51842;47.450;8.654;2023-07-31T01:51:12;95654.38;;;11.55;100.00
44297;BME280;51842;47.450;8.654;2023-07-31T01:53:38;95651.44;;;11.52;100.00
44297;BME280;51842;47.450;8.654;2023-07-31T01:56:04;95640.25;;;11.50;100.00
44297;BME280;51842;47.450;8.654;2023-07-31T01:58:30;95638.66;;;11.49;100.00
44297;BME280;51842;47.450;8.654;2023-07-31T02:00:56;95630.94;;;11.47;100.00
44297;BME280;51842;47.450;8.654;2023-07-31T02:03:22;95630.38;;;11.45;100.00
44297;BME280;51842;47.450;8.654;2023-07-31T02:05:49;95632.50;;;11.43;100.00
44297;BME280;51842;47.450;8.654;2023-07-31T02:08:15;95628.53;;;11.41;100.00
44297;BME280;51842;47.450;8.654;2023-07-31T02:10:42;95628.78;;;11.39;100.00
44297;BME280;51842;47.450;8.654;2023-07-31T02:13:08;95629.31;;;11.36;100.00
44297;BME280;51842;47.450;8.654;2023-07-31T02:15:35;95629.63;;;11.34;100.00
44297;BME280;51842;47.450;8.654;2023-07-31T02:18:00;95619.19;;;11.33;100.00
44297;BME280;51842;47.450;8.654;2023-07-31T02:20:26;95625.06;;;11.35;100.00
44297;BME280;51842;47.450;8.654;2023-07-31T02:22:52;95613.88;;;11.33;100.00
44297;BME280;51842;47.450;8.654;2023-07-31T02:25:18;95606.41;;;11.30;100.00
44297;BME280;51842;47.450;8.654;2023-07-31T02:27:43;95609.06;;;11.30;100.00
44297;BME280;51842;47.450;8.654;2023-07-31T02:30:10;95600.53;;;11.28;100.00
44297;BME280;51842;47.450;8.654;2023-07-31T02:32:36;95597.59;;;11.29;100.00
44297;BME280;51842;47.450;8.654;2023-07-31T02:35:02;95608.81;;;11.31;100.00
44297;BME280;51842;47.450;8.654;2023-07-31T02:37:28;95612.81;;;11.29;100.00
44297;BME280;51842;47.450;8.654;2023-07-31T02:39:54;95614.13;;;11.26;100.00
44297;BME280;51842;47.450;8.654;2023-07-31T02:42:20;95609.59;;;11.27;100.00
44297;BME280;51842;47.450;8.654;2023-07-31T02:44:46;95606.38;;;11.25;100.00
44297;BME280;51842;47.450;8.654;2023-07-31T02:47:12;95611.47;;;11.26;100.00
44297;BME280;51842;47.450;8.654;2023-07-31T02:49:37;95611.72;;;11.25;100.00
44297;BME280;51842;47.450;8.654;2023-07-31T02:52:04;95613.63;;;11.19;100.00
44297;BME280;51842;47.450;8.654;2023-07-31T02:54:29;95611.75;;;11.20;100.00
44297;BME280;51842;47.450;8.654;2023-07-31T02:56:55;95617.06;;;11.20;100.00
44297;BME280;51842;47.450;8.654;2023-07-31T02:59:21;95614.66;;;11.18;100.00
44297;BME280;51842;47.450;8.654;2023-07-31T03:01:47;95611.19;;;11.18;100.00
44297;BME280;51842;47.450;8.654;2023-07-31T03:04:12;95614.66;;;11.18;100.00
44297;BME280;51842;47.450;8.654;2023-07-31T03:06:38;95605.34;;;11.21;100.00
44297;BME280;51842;47.450;8.654;2023-07-31T03:09:04;95608.78;;;11.21;100.00
44297;BME280;51842;47.450;8.654;2023-07-31T03:11:29;95607.47;;;11.24;100.00
44297;BME280;51842;47.450;8.654;2023-07-31T03:13:55;95609.59;;;11.27;100.00
44297;BME280;51842;47.450;8.654;2023-07-31T03:16:21;95613.84;;;11.28;100.00
44297;BME280;51842;47.450;8.654;2023-07-31T03:18:46;95618.41;;;11.38;100.00
44297;BME280;51842;47.450;8.654;2023-07-31T03:21:14;95614.63;;;11.44;100.00
44297;BME280;51842;47.450;8.654;2023-07-31T03:23:40;95615.19;;;11.51;100.00
44297;BME280;51842;47.450;8.654;2023-07-31T03:26:07;95613.56;;;11.55;100.00
44297;BME280;51842;47.450;8.654;2023-07-31T03:28:33;95617.03;;;11.61;100.00
44297;BME280;51842;47.450;8.654;2023-07-31T03:30:59;95616.50;;;11.64;100.00
44297;BME280;51842;47.450;8.654;2023-07-31T03:33:25;95617.00;;;11.71;100.00
44297;BME280;51842;47.450;8.654;2023-07-31T03:35:51;95609.78;;;11.76;100.00
44297;BME280;51842;47.450;8.654;2023-07-31T03:38:18;95613.78;;;11.79;100.00
44297;BME280;51842;47.450;8.654;2023-07-31T03:40:43;95602.59;;;11.77;100.00
44297;BME280;51842;47.450;8.654;2023-07-31T03:43:10;95609.50;;;11.83;100.00
44297;BME280;51842;47.450;8.654;2023-07-31T03:45:35;95617.28;;;11.85;100.00
44297;BME280;51842;47.450;8.654;2023-07-31T03:48:01;95618.34;;;11.89;100.00
44297;BME280;51842;47.450;8.654;2023-07-31T03:50:27;95617.78;;;11.92;100.00
44297;BME280;51842;47.450;8.654;2023-07-31T03:52:53;95628.19;;;11.98;100.00
44297;BME280;51842;47.450;8.654;2023-07-31T03:55:19;95629.22;;;12.02;100.00
44297;BME280;51842;47.450;8.654;2023-07-31T03:57:45;95622.84;;;12.03;100.00
44297;BME280;51842;47.450;8.654;2023-07-31T04:00:11;95632.97;;;12.07;100.00
44297;BME280;51842;47.450;8.654;2023-07-31T04:02:37;95635.34;;;12.08;100.00
44297;BME280;51842;47.450;8.654;2023-07-31T04:05:03;95639.59;;;12.09;100.00
44297;BME280;51842;47.450;8.654;2023-07-31T04:07:28;95634.81;;;12.11;100.00
44297;BME280;51842;47.450;8.654;2023-07-31T04:09:54;95636.69;;;12.11;100.00
44297;BME280;51842;47.450;8.654;2023-07-31T04:12:20;95637.72;;;12.15;100.00
44297;BME280;51842;47.450;8.654;2023-07-31T04:14:45;95637.97;;;12.18;100.00
44297;BME280;51842;47.450;8.654;2023-07-31T04:17:11;95640.09;;;12.21;100.00
44297;BME280;51842;47.450;8.654;2023-07-31T04:19:37;95639.56;;;12.24;100.00
44297;BME280;51842;47.450;8.654;2023-07-31T04:22:03;95641.97;;;12.26;100.00
44297;BME280;51842;47.450;8.654;2023-07-31T04:24:29;95643.84;;;12.25;100.00
44297;BME280;51842;47.450;8.654;2023-07-31T04:26:55;95641.94;;;12.31;100.00
44297;BME280;51842;47.450;8.654;2023-07-31T04:29:21;95649.16;;;12.31;100.00
44297;BME280;51842;47.450;8.654;2023-07-31T04:31:48;95639.25;;;12.36;100.00
44297;BME280;51842;47.450;8.654;2023-07-31T04:34:14;95646.44;;;12.41;100.00
44297;BME280;51842;47.450;8.654;2023-07-31T04:36:40;95642.69;;;12.42;100.00
44297;BME280;51842;47.450;8.654;2023-07-31T04:39:05;95647.22;;;12.46;100.00
44297;BME280;51842;47.450;8.654;2023-07-31T04:41:31;95646.41;;;12.51;100.00
44297;BME280;51842;47.450;8.654;2023-07-31T04:43:57;95650.13;;;12.55;100.00
44297;BME280;51842;47.450;8.654;2023-07-31T04:46:23;95649.84;;;12.57;100.00
44297;BME280;51842;47.450;8.654;2023-07-31T04:48:48;95639.66;;;12.59;100.00
44297;BME280;51842;47.450;8.654;2023-07-31T04:51:14;95643.38;;;12.63;100.00
44297;BME280;51842;47.450;8.654;2023-07-31T04:53:40;95646.59;;;12.65;100.00
44297;BME280;51842;47.450;8.654;2023-07-31T04:56:05;95640.94;;;12.71;100.00
44297;BME280;51842;47.450;8.654;2023-07-31T04:58:31;95642.50;;;12.78;100.00
44297;BME280;51842;47.450;8.654;2023-07-31T05:00:57;95636.34;;;12.82;100.00
44297;BME280;51842;47.450;8.654;2023-07-31T05:03:22;95637.63;;;12.85;100.00
44297;BME280;51842;47.450;8.654;2023-07-31T05:05:49;95638.41;;;12.90;100.00
44297;BME280;51842;47.450;8.654;2023-07-31T05:08:15;95631.44;;;12.94;100.00
44297;BME280;51842;47.450;8.654;2023-07-31T05:10:43;95624.16;;;13.00;100.00
44297;BME280;51842;47.450;8.654;2023-07-31T05:13:09;95619.88;;;13.04;100.00
44297;BME280;51842;47.450;8.654;2023-07-31T05:15:34;95628.38;;;13.11;100.00
44297;BME280;51842;47.450;8.654;2023-07-31T05:18:00;95629.66;;;13.19;100.00
44297;BME280;51842;47.450;8.654;2023-07-31T05:20:26;95627.72;;;13.30;100.00
44297;BME280;51842;47.450;8.654;2023-07-31T05:22:53;95629.78;;;13.38;100.00
44297;BME280;51842;47.450;8.654;2023-07-31T05:25:19;95631.31;;;13.49;100.00
44297;BME280;51842;47.450;8.654;2023-07-31T05:27:45;95631.22;;;13.59;100.00
44297;BME280;51842;47.450;8.654;2023-07-31T05:30:11;95633.50;;;13.71;100.00
44297;BME280;51842;47.450;8.654;2023-07-31T05:32:36;95640.63;;;13.81;100.00
44297;BME280;51842;47.450;8.654;2023-07-31T05:35:02;95640.78;;;13.95;100.00
44297;BME280;51842;47.450;8.654;2023-07-31T05:37:28;95644.94;;;14.06;100.00
44297;BME280;51842;47.450;8.654;2023-07-31T05:39:54;95641.34;;;14.16;100.00
44297;BME280;51842;47.450;8.654;2023-07-31T05:42:20;95645.50;;;14.27;100.00
44297;BME280;51842;47.450;8.654;2023-07-31T05:44:45;95648.34;;;14.35;100.00
44297;BME280;51842;47.450;8.654;2023-07-31T05:47:12;95649.06;;;14.41;100.00
44297;BME280;51842;47.450;8.654;2023-07-31T05:49:38;95654.59;;;14.50;100.00
44297;BME280;51842;47.450;8.654;2023-07-31T05:52:04;95653.22;;;14.57;100.00
44297;BME280;51842;47.450;8.654;2023-07-31T05:54:31;95659.00;;;14.65;100.00
44297;BME280;51842;47.450;8.654;2023-07-31T05:56:57;95658.38;;;14.73;100.00
44297;BME280;51842;47.450;8.654;2023-07-31T05:59:23;95648.88;;;14.80;98.63
44297;BME280;51842;47.450;8.654;2023-07-31T06:01:49;95653.06;;;14.87;97.15
44297;BME280;51842;47.450;8.654;2023-07-31T06:04:15;95654.38;;;14.89;94.35
44297;BME280;51842;47.450;8.654;2023-07-31T06:06:40;95655.91;;;14.95;92.92
44297;BME280;51842;47.450;8.654;2023-07-31T06:09:06;95649.09;;;15.03;93.03
44297;BME280;51842;47.450;8.654;2023-07-31T06:11:32;95636.69;;;15.07;93.60
44297;BME280;51842;47.450;8.654;2023-07-31T06:13:58;95641.97;;;15.12;94.96
44297;BME280;51842;47.450;8.654;2023-07-31T06:16:25;95644.38;;;15.14;94.15
44297;BME280;51842;47.450;8.654;2023-07-31T06:18:52;95644.28;;;15.19;94.12
44297;BME280;51842;47.450;8.654;2023-07-31T06:21:18;95634.28;;;15.24;92.85
44297;BME280;51842;47.450;8.654;2023-07-31T06:23:44;95632.47;;;15.20;86.82
44297;BME280;51842;47.450;8.654;2023-07-31T06:26:09;95635.28;;;15.28;88.53
44297;BME280;51842;47.450;8.654;2023-07-31T06:28:35;95633.31;;;15.34;86.17
44297;BME280;51842;47.450;8.654;2023-07-31T06:31:01;95639.59;;;15.43;86.33
44297;BME280;51842;47.450;8.654;2023-07-31T06:33:27;95632.47;;;15.53;86.45
44297;BME280;51842;47.450;8.654;2023-07-31T06:35:53;95632.31;;;15.63;86.44
44297;BME280;51842;47.450;8.654;2023-07-31T06:38:24;95625.69;;;15.74;86.29
44297;BME280;51842;47.450;8.654;2023-07-31T06:40:50;95623.72;;;15.80;85.88
44297;BME280;51842;47.450;8.654;2023-07-31T06:43:16;95632.97;;;15.87;85.54
44297;BME280;51842;47.450;8.654;2023-07-31T06:45:42;95644.13;;;15.94;85.95
44297;BME280;51842;47.450;8.654;2023-07-31T06:48:07;95642.34;;;16.04;86.78
44297;BME280;51842;47.450;8.654;2023-07-31T06:50:34;95647.75;;;16.17;86.43
44297;BME280;51842;47.450;8.654;2023-07-31T06:53:00;95651.91;;;16.37;86.38
44297;BME280;51842;47.450;8.654;2023-07-31T06:55:26;95646.13;;;16.58;84.45
44297;BME280;51842;47.450;8.654;2023-07-31T06:57:54;95628.56;;;16.88;83.96
44297;BME280;51842;47.450;8.654;2023-07-31T07:00:22;95629.44;;;17.20;81.93
44297;BME280;51842;47.450;8.654;2023-07-31T07:02:49;95618.25;;;17.49;79.19
44297;BME280;51842;47.450;8.654;2023-07-31T07:05:16;95608.50;;;17.84;74.75
44297;BME280;51842;47.450;8.654;2023-07-31T07:07:43;95608.16;;;18.17;71.43
44297;BME280;51842;47.450;8.654;2023-07-31T07:10:09;95604.88;;;18.37;70.71
44297;BME280;51842;47.450;8.654;2023-07-31T07:12:35;95617.31;;;18.56;70.16
44297;BME280;51842;47.450;8.654;2023-07-31T07:15:02;95609.69;;;18.66;70.62
44297;BME280;51842;47.450;8.654;2023-07-31T07:17:30;95593.72;;;18.79;68.91
44297;BME280;51842;47.450;8.654;2023-07-31T07:20:00;95598.16;;;18.92;68.40
44297;BME280;51842;47.450;8.654;2023-07-31T07:22:26;95605.00;;;19.15;69.55
44297;BME280;51842;47.450;8.654;2023-07-31T07:24:53;95597.38;;;19.26;64.81
44297;BME280;51842;47.450;8.654;2023-07-31T07:27:19;95600.06;;;19.35;64.34
44297;BME280;51842;47.450;8.654;2023-07-31T07:29:46;95599.41;;;19.47;63.24
44297;BME280;51842;47.450;8.654;2023-07-31T07:32:12;95602.91;;;19.56;63.08
44297;BME280;51842;47.450;8.654;2023-07-31T07:34:38;95597.59;;;19.77;61.37
44297;BME280;51842;47.450;8.654;2023-07-31T07:37:04;95604.41;;;19.92;61.27
44297;BME280;51842;47.450;8.654;2023-07-31T07:39:30;95601.28;;;20.19;60.27
44297;BME280;51842;47.450;8.654;2023-07-31T07:41:56;95604.19;;;20.44;57.84
44297;BME280;51842;47.450;8.654;2023-07-31T07:44:22;95600.56;;;20.69;55.69
44297;BME280;51842;47.450;8.654;2023-07-31T07:46:47;95599.91;;;20.93;54.04
44297;BME280;51842;47.450;8.654;2023-07-31T07:49:13;95608.81;;;21.15;53.51
44297;BME280;51842;47.450;8.654;2023-07-31T07:51:39;95605.91;;;21.20;52.78
44297;BME280;51842;47.450;8.654;2023-07-31T07:54:05;95605.75;;;21.58;51.27
44297;BME280;51842;47.450;8.654;2023-07-31T07:56:31;95609.78;;;21.52;52.59
44297;BME280;51842;47.450;8.654;2023-07-31T07:58:56;95610.00;;;21.92;51.37
44297;BME280;51842;47.450;8.654;2023-07-31T08:01:22;95611.09;;;22.25;50.39
44297;BME280;51842;47.450;8.654;2023-07-31T08:03:48;95622.50;;;22.67;50.93
44297;BME280;51842;47.450;8.654;2023-07-31T08:06:14;95626.88;;;22.84;49.63
44297;BME280;51842;47.450;8.654;2023-07-31T08:08:40;95631.09;;;22.94;48.33
44297;BME280;51842;47.450;8.654;2023-07-31T08:11:06;95616.25;;;22.91;48.22
44297;BME280;51842;47.450;8.654;2023-07-31T08:13:32;95620.56;;;22.80;47.90
44297;BME280;51842;47.450;8.654;2023-07-31T08:15:58;95608.94;;;22.67;48.54
44297;BME280;51842;47.450;8.654;2023-07-31T08:18:24;95602.44;;;22.96;47.52
44297;BME280;51842;47.450;8.654;2023-07-31T08:20:50;95603.19;;;23.21;47.04
44297;BME280;51842;47.450;8.654;2023-07-31T08:23:15;95602.56;;;23.00;46.31
44297;BME280;51842;47.450;8.654;2023-07-31T08:25:41;95595.44;;;22.95;45.73
44297;BME280;51842;47.450;8.654;2023-07-31T08:28:07;95587.91;;;22.64;46.17
44297;BME280;51842;47.450;8.654;2023-07-31T08:30:33;95580.81;;;22.23;47.83
44297;BME280;51842;47.450;8.654;2023-07-31T08:32:59;95575.44;;;21.89;49.07
44297;BME280;51842;47.450;8.654;2023-07-31T08:35:26;95578.50;;;22.12;48.46
44297;BME280;51842;47.450;8.654;2023-07-31T08:37:54;95577.69;;;22.00;49.01
44297;BME280;51842;47.450;8.654;2023-07-31T08:40:20;95570.59;;;21.95;48.66
44297;BME280;51842;47.450;8.654;2023-07-31T08:42:53;95573.53;;;22.02;48.32
44297;BME280;51842;47.450;8.654;2023-07-31T08:45:20;95565.94;;;21.83;48.83
44297;BME280;51842;47.450;8.654;2023-07-31T08:47:49;95573.25;;;21.70;49.81
44297;BME280;51842;47.450;8.654;2023-07-31T08:50:19;95580.44;;;21.54;50.46
44297;BME280;51842;47.450;8.654;2023-07-31T08:52:47;95571.28;;;21.59;51.25
44297;BME280;51842;47.450;8.654;2023-07-31T08:55:14;95565.31;;;21.65;50.06
44297;BME280;51842;47.450;8.654;2023-07-31T08:57:42;95566.00;;;21.29;50.82
44297;BME280;51842;47.450;8.654;2023-07-31T09:00:10;95565.13;;;21.70;50.83
44297;BME280;51842;47.450;8.654;2023-07-31T09:05:30;95568.13;;;22.39;48.05
44297;BME280;51842;47.450;8.654;2023-07-31T09:07:57;95566.38;;;22.71;47.14
44297;BME280;51842;47.450;8.654;2023-07-31T09:10:24;95557.94;;;23.13;45.30
44297;BME280;51842;47.450;8.654;2023-07-31T09:12:52;95562.38;;;23.33;44.60
44297;BME280;51842;47.450;8.654;2023-07-31T09:15:18;95556.97;;;23.21;45.18
44297;BME280;51842;47.450;8.654;2023-07-31T09:17:44;95569.09;;;23.24;44.90
44297;BME280;51842;47.450;8.654;2023-07-31T09:20:19;95556.00;;;23.42;43.06
44297;BME280;51842;47.450;8.654;2023-07-31T09:22:46;95557.72;;;23.34;44.18
44297;BME280;51842;47.450;8.654;2023-07-31T09:25:18;95557.34;;;23.20;43.77
44297;BME280;51842;47.450;8.654;2023-07-31T09:27:55;95542.28;;;23.66;43.34
44297;BME280;51842;47.450;8.654;2023-07-31T09:30:21;95552.13;;;23.87;41.87
44297;BME280;51842;47.450;8.654;2023-07-31T09:32:50;95551.47;;;23.62;43.19
44297;BME280;51842;47.450;8.654;2023-07-31T09:35:42;95552.50;;;24.01;43.32
44297;BME280;51842;47.450;8.654;2023-07-31T09:38:13;95544.22;;;24.29;41.35
44297;BME280;51842;47.450;8.654;2023-07-31T09:40:43;95538.66;;;24.57;40.86
44297;BME280;51842;47.450;8.654;2023-07-31T09:43:13;95539.63;;;24.84;40.96
44297;BME280;51842;47.450;8.654;2023-07-31T09:45:42;95529.09;;;24.63;41.28
44297;BME280;51842;47.450;8.654;2023-07-31T09:48:18;95541.69;;;24.72;41.19
44297;BME280;51842;47.450;8.654;2023-07-31T09:50:47;95528.38;;;24.86;40.60
44297;BME280;51842;47.450;8.654;2023-07-31T09:53:14;95547.41;;;25.21;40.90
44297;BME280;51842;47.450;8.654;2023-07-31T09:55:41;95547.53;;;25.48;39.80
44297;BME280;51842;47.450;8.654;2023-07-31T09:58:12;95533.03;;;26.09;39.08
44297;BME280;51842;47.450;8.654;2023-07-31T10:00:38;95525.28;;;26.11;38.07
44297;BME280;51842;47.450;8.654;2023-07-31T10:03:09;95526.53;;;26.44;38.44
44297;BME280;51842;47.450;8.654;2023-07-31T10:05:40;95520.97;;;26.37;37.80
44297;BME280;51842;47.450;8.654;2023-07-31T10:08:10;95526.13;;;26.68;38.77
44297;BME280;51842;47.450;8.654;2023-07-31T10:10:45;95517.13;;;26.64;37.04
44297;BME280;51842;47.450;8.654;2023-07-31T10:13:13;95510.22;;;26.74;37.51
44297;BME280;51842;47.450;8.654;2023-07-31T10:15:39;95500.94;;;26.52;37.70
44297;BME280;51842;47.450;8.654;2023-07-31T10:18:07;95505.81;;;26.96;37.37
44297;BME280;51842;47.450;8.654;2023-07-31T10:20:34;95499.97;;;27.28;36.32
44297;BME280;51842;47.450;8.654;2023-07-31T10:23:01;95510.59;;;27.74;36.00
44297;BME280;51842;47.450;8.654;2023-07-31T10:25:27;95499.00;;;27.87;35.17
44297;BME280;51842;47.450;8.654;2023-07-31T10:27:54;95496.47;;;28.12;34.80
44297;BME280;51842;47.450;8.654;2023-07-31T10:30:29;95487.41;;;28.05;34.13
44297;BME280;51842;47.450;8.654;2023-07-31T10:32:57;95474.25;;;28.28;34.63
44297;BME280;51842;47.450;8.654;2023-07-31T10:35:23;95483.53;;;28.09;34.82
44297;BME280;51842;47.450;8.654;2023-07-31T10:37:50;95474.91;;;26.92;35.25
44297;BME280;51842;47.450;8.654;2023-07-31T10:40:25;95468.72;;;27.73;35.39
44297;BME280;51842;47.450;8.654;2023-07-31T10:42:56;95470.81;;;28.38;34.94
44297;BME280;51842;47.450;8.654;2023-07-31T10:45:42;95471.94;;;28.30;33.94
44297;BME280;51842;47.450;8.654;2023-07-31T10:48:16;95463.22;;;27.69;33.40
44297;BME280;51842;47.450;8.654;2023-07-31T10:50:56;95459.13;;;27.86;34.85
44297;BME280;51842;47.450;8.654;2023-07-31T10:53:32;95454.94;;;28.03;34.10
44297;BME280;51842;47.450;8.654;2023-07-31T10:56:04;95450.81;;;27.79;34.45
44297;BME280;51842;47.450;8.654;2023-07-31T10:58:31;95452.91;;;27.93;34.35
44297;BME280;51842;47.450;8.654;2023-07-31T11:01:03;95447.34;;;27.82;34.21
44297;BME280;51842;47.450;8.654;2023-07-31T11:03:46;95448.06;;;27.35;33.76
44297;BME280;51842;47.450;8.654;2023-07-31T11:06:14;95449.47;;;27.18;34.96
44297;BME280;51842;47.450;8.654;2023-07-31T11:08:46;95430.03;;;27.71;34.34
44297;BME280;51842;47.450;8.654;2023-07-31T11:11:15;95424.38;;;27.94;34.39
44297;BME280;51842;47.450;8.654;2023-07-31T11:13:49;95422.22;;;28.25;32.98
44297;BME280;51842;47.450;8.654;2023-07-31T11:16:17;95423.72;;;28.11;34.30
44297;BME280;51842;47.450;8.654;2023-07-31T11:18:45;95415.72;;;28.51;32.27
44297;BME280;51842;47.450;8.654;2023-07-31T11:21:23;95414.00;;;28.25;32.89
44297;BME280;51842;47.450;8.654;2023-07-31T11:23:56;95401.59;;;28.42;32.82
44297;BME280;51842;47.450;8.654;2023-07-31T11:26:24;95395.97;;;28.20;32.68
44297;BME280;51842;47.450;8.654;2023-07-31T11:28:50;95396.03;;;28.31;33.22
44297;BME280;51842;47.450;8.654;2023-07-31T11:31:17;95389.91;;;28.52;32.93
44297;BME280;51842;47.450;8.654;2023-07-31T11:33:44;95398.06;;;28.41;32.86
44297;BME280;51842;47.450;8.654;2023-07-31T11:36:20;95394.66;;;28.69;32.26
44297;BME280;51842;47.450;8.654;2023-07-31T11:38:46;95399.81;;;28.85;33.28
44297;BME280;51842;47.450;8.654;2023-07-31T11:41:15;95396.03;;;29.29;32.17
44297;BME280;51842;47.450;8.654;2023-07-31T11:43:41;95402.72;;;29.53;30.75
44297;BME280;51842;47.450;8.654;2023-07-31T11:46:07;95404.66;;;29.35;30.57
44297;BME280;51842;47.450;8.654;2023-07-31T11:48:36;95396.41;;;29.24;31.62
44297;BME280;51842;47.450;8.654;2023-07-31T11:51:05;95399.13;;;29.06;31.87
44297;BME280;51842;47.450;8.654;2023-07-31T11:53:51;95391.34;;;29.37;31.07
44297;BME280;51842;47.450;8.654;2023-07-31T11:56:19;95387.44;;;29.77;31.56
44297;BME280;51842;47.450;8.654;2023-07-31T11:58:53;95391.34;;;29.40;30.23
44297;BME280;51842;47.450;8.654;2023-07-31T12:01:22;95387.78;;;29.33;30.24
44297;BME280;51842;47.450;8.654;2023-07-31T12:03:52;95386.19;;;29.17;31.54
44297;BME280;51842;47.450;8.654;2023-07-31T12:06:18;95386.84;;;28.68;31.65
44297;BME280;51842;47.450;8.654;2023-07-31T12:08:46;95382.09;;;28.54;32.30
44297;BME280;51842;47.450;8.654;2023-07-31T12:11:12;95367.78;;;29.11;30.35
44297;BME280;51842;47.450;8.654;2023-07-31T12:13:43;95376.78;;;29.08;30.64
44297;BME280;51842;47.450;8.654;2023-07-31T12:16:09;95370.53;;;29.07;31.75
44297;BME280;51842;47.450;8.654;2023-07-31T12:18:37;95366.63;;;29.51;32.79
44297;BME280;51842;47.450;8.654;2023-07-31T12:21:08;95365.41;;;30.24;31.45
44297;BME280;51842;47.450;8.654;2023-07-31T12:23:37;95371.66;;;30.35;31.13
44297;BME280;51842;47.450;8.654;2023-07-31T12:28:42;95346.75;;;30.74;30.43
44297;BME280;51842;47.450;8.654;2023-07-31T12:31:20;95348.88;;;30.38;30.03
44297;BME280;51842;47.450;8.654;2023-07-31T12:33:50;95334.78;;;30.32;29.53
44297;BME280;51842;47.450;8.654;2023-07-31T12:36:21;95341.47;;;30.20;28.95
44297;BME280;51842;47.450;8.654;2023-07-31T12:38:47;95345.66;;;30.57;28.86
44297;BME280;51842;47.450;8.654;2023-07-31T12:41:13;95341.28;;;30.67;29.80
44297;BME280;51842;47.450;8.654;2023-07-31T12:43:42;95341.91;;;31.03;27.47
44297;BME280;51842;47.450;8.654;2023-07-31T12:46:08;95336.19;;;31.32;28.00
44297;BME280;51842;47.450;8.654;2023-07-31T12:48:35;95325.94;;;31.40;28.44
44297;BME280;51842;47.450;8.654;2023-07-31T12:51:01;95318.16;;;31.31;27.74
44297;BME280;51842;47.450;8.654;2023-07-31T12:53:28;95313.47;;;30.58;28.68
44297;BME280;51842;47.450;8.654;2023-07-31T12:55:58;95312.91;;;30.00;29.12
44297;BME280;51842;47.450;8.654;2023-07-31T12:58:24;95307.69;;;30.38;28.40
44297;BME280;51842;47.450;8.654;2023-07-31T13:00:51;95310.66;;;30.72;29.50
44297;BME280;51842;47.450;8.654;2023-07-31T13:03:17;95301.81;;;31.06;27.93
44297;BME280;51842;47.450;8.654;2023-07-31T13:05:42;95300.66;;;31.03;27.85
44297;BME280;51842;47.450;8.654;2023-07-31T13:08:08;95291.91;;;30.49;28.83